Time;durP1;ratioP1;P1;durP2;ratioP2;P2;SDS_P1;SDS_P2;PMS_P1;PMS_P2;Temp;Humidity;BMP_temperature;BMP_pressure;BME280_temperature;BME280_humidity;BME280_pressure;Samples;Min_cycle;Max_cycle;Signal;HPM_P1;HPM_P2
2022/07/27 00:00:44;;;;;;;1.05;0.30;;;;;;;23.90;54.23;100226.59;5007130;28;20116;-64
2022/07/27 00:03:10;;;;;;;1.17;0.40;;;;;;;24.00;53.98;100227.59;5007546;28;20022;-64
2022/07/27 00:05:38;;;;;;;0.93;0.30;;;;;;;24.31;52.82;100228.16;5003768;28;20512;-64
2022/07/27 00:08:05;;;;;;;0.65;0.40;;;;;;;24.50;52.66;100229.53;5005429;28;20113;-64
2022/07/27 00:10:31;;;;;;;0.70;0.35;;;;;;;24.51;52.39;100236.50;5008262;28;20528;-64
2022/07/27 00:12:56;;;;;;;0.70;0.32;;;;;;;24.45;52.67;100230.28;4988855;28;20073;-64
2022/07/27 00:15:22;;;;;;;1.08;0.30;;;;;;;24.41;53.16;100233.66;5006519;28;20505;-64
2022/07/27 00:17:47;;;;;;;1.00;0.50;;;;;;;24.41;53.16;100226.47;5006695;28;20038;-64
2022/07/27 00:20:13;;;;;;;0.80;0.30;;;;;;;24.60;52.82;100216.38;5006895;28;20038;-65
2022/07/27 00:22:38;;;;;;;0.68;0.30;;;;;;;24.72;52.13;100202.97;5005635;28;20540;-64
2022/07/27 00:25:04;;;;;;;0.75;0.30;;;;;;;24.70;52.45;100203.22;5007473;28;20445;-65
2022/07/27 00:27:30;;;;;;;0.70;0.32;;;;;;;24.67;52.55;100190.38;5004925;28;20037;-65
2022/07/27 00:29:55;;;;;;;0.68;0.25;;;;;;;24.70;52.45;100187.22;5006272;28;20084;-65
2022/07/27 00:32:21;;;;;;;0.75;0.32;;;;;;;24.66;52.57;100186.09;5007137;28;20056;-64
2022/07/27 00:34:47;;;;;;;0.65;0.40;;;;;;;24.56;52.95;100183.31;5005731;28;20440;-65
2022/07/27 00:37:13;;;;;;;0.85;0.28;;;;;;;24.44;53.93;100194.03;5005619;28;20073;-65
2022/07/27 00:39:39;;;;;;;0.70;0.40;;;;;;;24.35;54.42;100194.69;5007519;28;20624;-65
2022/07/27 00:42:04;;;;;;;1.13;0.40;;;;;;;24.29;54.46;100198.31;5006251;28;20485;-65
2022/07/27 00:44:31;;;;;;;0.63;0.30;;;;;;;24.22;55.10;100197.59;5017988;28;20295;-64
2022/07/27 00:46:58;;;;;;;0.63;0.30;;;;;;;24.15;55.22;100195.91;5010991;28;20029;-65
2022/07/27 00:49:27;;;;;;;0.77;0.30;;;;;;;24.08;55.71;100199.78;5012162;28;20390;-64
2022/07/27 00:51:54;;;;;;;0.70;0.40;;;;;;;24.00;55.95;100195.66;5011796;28;20030;-65
2022/07/27 00:54:21;;;;;;;0.95;0.40;;;;;;;23.86;56.48;100196.19;5010843;28;20033;-64
2022/07/27 00:56:47;;;;;;;0.50;0.30;;;;;;;23.85;56.52;100198.03;5009819;28;20113;-65
2022/07/27 00:59:13;;;;;;;0.75;0.32;;;;;;;23.86;56.16;100194.31;5010728;28;20056;-64
2022/07/27 01:01:39;;;;;;;0.80;0.38;;;;;;;23.89;56.37;100199.19;5011941;28;20060;-64
2022/07/27 01:04:07;;;;;;;0.80;0.40;;;;;;;23.83;56.74;100184.97;5011008;28;20069;-65
2022/07/27 01:06:33;;;;;;;1.60;0.32;;;;;;;23.76;56.58;100186.97;5012221;28;20474;-64
2022/07/27 01:11:46;;;;;;;0.98;0.30;;;;;;;23.71;56.81;100184.19;5013955;28;20414;-64
2022/07/27 01:14:14;;;;;;;0.82;0.30;;;;;;;23.62;57.08;100183.00;5011321;28;20481;-64
2022/07/27 01:16:40;;;;;;;0.90;0.45;;;;;;;23.57;57.30;100188.22;5012954;28;20113;-64
2022/07/27 01:19:09;;;;;;;0.43;0.30;;;;;;;23.53;57.52;100189.72;5005859;28;20041;-64
2022/07/27 01:21:36;;;;;;;1.48;0.40;;;;;;;23.61;57.35;100183.22;5000562;28;20032;-64
2022/07/27 01:24:02;;;;;;;0.80;0.43;;;;;;;23.77;57.01;100179.78;5010380;28;20065;-65
2022/07/27 01:26:28;;;;;;;0.57;0.30;;;;;;;23.74;57.26;100180.25;5011107;28;20045;-64
2022/07/27 01:28:59;;;;;;;0.60;0.30;;;;;;;23.78;57.38;100189.38;5013310;28;20034;-64
2022/07/27 01:31:25;;;;;;;0.63;0.30;;;;;;;23.76;57.47;100181.63;5009901;28;20421;-64
2022/07/27 01:33:51;;;;;;;0.90;0.40;;;;;;;23.71;57.58;100180.75;5010429;28;20069;-65
2022/07/27 01:36:17;;;;;;;0.90;0.40;;;;;;;23.68;57.94;100186.53;5009010;28;20061;-65
2022/07/27 01:38:42;;;;;;;0.93;0.30;;;;;;;23.58;57.82;100181.03;5011895;28;20046;-64
2022/07/27 01:41:08;;;;;;;0.98;0.47;;;;;;;23.65;57.76;100179.84;5010103;28;20033;-64
2022/07/27 01:43:34;;;;;;;1.20;0.40;;;;;;;23.66;57.96;100172.66;5009023;28;20041;-65
2022/07/27 01:45:59;;;;;;;0.80;0.35;;;;;;;23.62;58.23;100172.34;5012326;28;20120;-65
2022/07/27 01:48:25;;;;;;;0.65;0.30;;;;;;;23.58;58.72;100167.75;5003397;28;20087;-65
2022/07/27 01:50:52;;;;;;;1.30;0.40;;;;;;;23.53;58.83;100170.28;5006937;28;20107;-64
2022/07/27 01:53:18;;;;;;;1.05;0.40;;;;;;;23.49;58.96;100170.75;5000925;28;20185;-64
2022/07/27 01:55:44;;;;;;;0.90;0.40;;;;;;;23.44;59.23;100167.16;5007268;28;20030;-65
2022/07/27 01:58:10;;;;;;;0.60;0.30;;;;;;;23.41;59.43;100157.81;5008053;28;20099;-65
2022/07/27 02:00:36;;;;;;;0.70;0.40;;;;;;;23.37;59.50;100166.50;5008466;28;20080;-64
2022/07/27 02:03:04;;;;;;;1.15;0.35;;;;;;;23.26;59.69;100162.81;5008550;28;20065;-65
2022/07/27 02:05:29;;;;;;;0.73;0.30;;;;;;;23.19;59.96;100164.78;5008452;28;20122;-64
2022/07/27 02:07:55;;;;;;;1.27;0.50;;;;;;;23.12;60.30;100162.28;5008256;28;20125;-65
2022/07/27 02:10:20;;;;;;;1.00;0.57;;;;;;;23.04;60.51;100169.81;5009354;28;20153;-65
2022/07/27 02:12:46;;;;;;;1.00;0.40;;;;;;;22.95;60.88;100179.97;5008328;28;20069;-64
2022/07/27 02:15:15;;;;;;;0.80;0.40;;;;;;;22.96;60.45;100168.31;5006190;28;20041;-64
2022/07/27 02:17:44;;;;;;;0.82;0.40;;;;;;;23.01;60.58;100164.97;5003712;28;20037;-64
2022/07/27 02:20:10;;;;;;;1.15;0.40;;;;;;;23.02;60.41;100164.72;5008199;28;20093;-64
2022/07/27 02:22:36;;;;;;;0.73;0.50;;;;;;;23.04;60.95;100159.19;5009336;28;20030;-65
2022/07/27 02:25:02;;;;;;;0.68;0.50;;;;;;;23.04;60.62;100170.63;5009535;28;20407;-65
2022/07/27 02:27:28;;;;;;;0.65;0.35;;;;;;;23.06;60.49;100168.53;5005833;28;20041;-65
2022/07/27 02:29:53;;;;;;;1.30;0.35;;;;;;;23.13;60.71;100174.53;5009341;28;20502;-65
2022/07/27 02:32:20;;;;;;;1.63;0.40;;;;;;;23.21;60.48;100170.69;5008136;28;20158;-65
2022/07/27 02:34:46;;;;;;;1.08;0.50;;;;;;;23.25;60.56;100169.19;5006647;28;20121;-64
2022/07/27 02:37:11;;;;;;;0.85;0.55;;;;;;;23.26;60.81;100173.44;5007438;28;20156;-64
2022/07/27 02:39:37;;;;;;;1.10;0.40;;;;;;;23.25;60.78;100173.69;5007684;28;20029;-64
2022/07/27 02:42:03;;;;;;;1.55;0.40;;;;;;;23.28;60.41;100168.72;5007328;28;20500;-64
2022/07/27 02:44:29;;;;;;;0.80;0.40;;;;;;;23.33;60.35;100168.81;5008430;28;20100;-64
2022/07/27 02:46:55;;;;;;;2.58;0.68;;;;;;;23.29;60.75;100172.97;5012292;28;20029;-64
2022/07/27 02:49:20;;;;;;;0.90;0.52;;;;;;;23.28;60.34;100168.72;5007597;28;20036;-65
2022/07/27 02:51:50;;;;;;;1.67;0.57;;;;;;;23.24;61.04;100178.19;5006135;28;20123;-65
2022/07/27 02:54:21;;;;;;;0.80;0.40;;;;;;;23.18;60.85;100181.78;5005843;28;20108;-65
2022/07/27 02:56:47;;;;;;;0.55;0.30;;;;;;;23.12;61.35;100185.41;5007010;28;20050;-64
2022/07/27 02:59:13;;;;;;;0.90;0.40;;;;;;;23.06;61.47;100176.50;5008807;28;20026;-65
2022/07/27 03:01:39;;;;;;;0.82;0.43;;;;;;;23.02;61.46;100179.84;5002764;28;20095;-64
2022/07/27 03:04:05;;;;;;;0.80;0.25;;;;;;;22.98;61.15;100176.84;4992618;28;20120;-64
2022/07/27 03:06:30;;;;;;;1.83;0.40;;;;;;;23.02;61.51;100185.97;4997044;28;20040;-65
2022/07/27 03:08:56;;;;;;;1.00;0.38;;;;;;;22.97;61.80;100183.22;5006600;28;20078;-64
2022/07/27 03:11:22;;;;;;;0.88;0.40;;;;;;;22.91;61.98;100180.66;4972937;28;20042;-64
2022/07/27 03:13:47;;;;;;;0.60;0.30;;;;;;;22.85;62.18;100185.06;4970046;28;20659;-65
2022/07/27 03:16:12;;;;;;;0.70;0.40;;;;;;;22.79;62.31;100178.00;4987283;28;20063;-65
2022/07/27 03:18:38;;;;;;;1.02;0.40;;;;;;;22.73;62.14;100178.91;4988933;28;20083;-65
2022/07/27 03:21:05;;;;;;;0.75;0.30;;;;;;;22.70;62.39;100176.72;4997414;28;20026;-65
2022/07/27 03:23:30;;;;;;;0.60;0.30;;;;;;;22.69;62.48;100175.91;4988364;28;20030;-64
2022/07/27 03:25:55;;;;;;;1.25;0.47;;;;;;;22.69;62.28;100170.59;4988752;28;20037;-64
2022/07/27 03:28:21;;;;;;;0.90;0.40;;;;;;;22.80;61.96;100177.78;4991697;28;20506;-64
2022/07/27 03:30:46;;;;;;;0.75;0.50;;;;;;;22.84;61.82;100170.97;4999124;28;20513;-64
2022/07/27 03:33:12;;;;;;;1.02;0.35;;;;;;;22.81;61.75;100170.63;4997716;28;20022;-65
2022/07/27 03:35:37;;;;;;;0.85;0.38;;;;;;;22.84;61.80;100165.66;4990972;28;20037;-64
2022/07/27 03:38:03;;;;;;;0.88;0.38;;;;;;;22.90;61.56;100171.91;4960591;28;20030;-65
2022/07/27 03:40:31;;;;;;;0.98;0.40;;;;;;;22.94;61.31;100169.59;4993565;28;20042;-64
2022/07/27 03:42:57;;;;;;;0.80;0.32;;;;;;;22.99;61.52;100167.03;4994776;28;20033;-65
2022/07/27 03:45:22;;;;;;;0.98;0.30;;;;;;;23.02;61.77;100164.72;5005860;28;20037;-64
2022/07/27 03:47:48;;;;;;;0.85;0.40;;;;;;;23.05;61.43;100169.56;4987850;28;20034;-64
2022/07/27 03:50:13;;;;;;;0.80;0.40;;;;;;;23.07;61.16;100164.03;4995912;28;20113;-64
2022/07/27 03:52:39;;;;;;;0.60;0.40;;;;;;;23.11;61.26;100165.19;4989466;28;20026;-64
2022/07/27 03:55:05;;;;;;;0.77;0.40;;;;;;;23.19;60.81;100162.13;4986975;28;20405;-64
2022/07/27 03:57:30;;;;;;;0.70;0.30;;;;;;;23.26;61.01;100164.66;4987434;28;20062;-64
2022/07/27 03:59:56;;;;;;;1.77;0.52;;;;;;;23.33;60.25;100152.88;4995799;28;20355;-64
2022/07/27 04:02:21;;;;;;;1.13;0.50;;;;;;;23.40;59.92;100158.84;5016256;28;20028;-64
2022/07/27 04:04:47;;;;;;;0.85;0.40;;;;;;;23.45;59.89;100150.19;5010567;28;20478;-64
2022/07/27 04:07:12;;;;;;;1.30;0.43;;;;;;;23.51;59.78;100146.56;5008370;28;20076;-64
2022/07/27 04:09:38;;;;;;;2.65;0.50;;;;;;;23.59;60.04;100150.75;5019328;28;20119;-65
2022/07/27 04:12:04;;;;;;;2.35;0.35;;;;;;;23.62;60.13;100151.09;5009651;28;20038;-65
2022/07/27 04:14:29;;;;;;;1.40;0.50;;;;;;;23.58;59.82;100152.59;5007092;28;20057;-64
2022/07/27 04:16:55;;;;;;;1.23;0.30;;;;;;;23.62;60.37;100160.91;5007452;28;20026;-65
2022/07/27 04:19:21;;;;;;;0.55;0.30;;;;;;;23.63;60.61;100162.53;5009064;28;20113;-65
2022/07/27 04:21:46;;;;;;;0.98;0.40;;;;;;;23.59;60.72;100169.34;5018698;28;20142;-64
2022/07/27 04:24:12;;;;;;;1.13;0.30;;;;;;;23.59;60.69;100172.81;5019789;28;20026;-64
2022/07/27 04:26:37;;;;;;;0.80;0.50;;;;;;;23.64;60.41;100180.88;5011515;28;20053;-64
2022/07/27 04:29:03;;;;;;;0.88;0.40;;;;;;;23.72;60.57;100185.00;4994372;28;20029;-65
2022/07/27 04:31:29;;;;;;;1.20;0.40;;;;;;;23.74;60.50;100194.38;5011000;28;20034;-65
2022/07/27 04:33:54;;;;;;;0.80;0.35;;;;;;;23.82;60.45;100195.84;4992065;28;20121;-65
2022/07/27 04:36:20;;;;;;;1.20;0.52;;;;;;;23.90;59.94;100198.13;5007179;28;20096;-65
2022/07/27 04:38:45;;;;;;;0.98;0.43;;;;;;;24.01;59.64;100199.94;5012853;28;20112;-65
2022/07/27 04:41:11;;;;;;;0.60;0.30;;;;;;;24.06;59.10;100210.69;5005591;28;20120;-64
2022/07/27 04:43:37;;;;;;;0.82;0.32;;;;;;;24.11;59.08;100221.38;5012749;28;20085;-65
2022/07/27 04:46:03;;;;;;;0.70;0.30;;;;;;;24.15;58.59;100209.22;5007295;28;20434;-65
2022/07/27 04:48:31;;;;;;;2.03;0.30;;;;;;;24.25;58.34;100207.78;5009392;28;20426;-65
2022/07/27 04:50:57;;;;;;;0.88;0.40;;;;;;;24.37;58.59;100206.69;5002218;28;20045;-64
2022/07/27 04:53:22;;;;;;;0.70;0.30;;;;;;;24.49;58.81;100209.28;5010017;28;20088;-64
2022/07/27 04:55:48;;;;;;;0.63;0.30;;;;;;;24.55;58.50;100213.66;5014714;28;20025;-64
2022/07/27 04:58:13;;;;;;;0.85;0.40;;;;;;;24.66;57.84;100218.06;5013805;28;20081;-64
2022/07/27 05:00:39;;;;;;;0.60;0.30;;;;;;;24.89;56.62;100216.28;5005080;28;20354;-64
2022/07/27 05:03:05;;;;;;;0.70;0.30;;;;;;;25.10;56.31;100220.88;5008393;28;20545;-64
2022/07/27 05:05:31;;;;;;;0.98;0.30;;;;;;;25.27;56.22;100231.50;5010571;28;20053;-64
2022/07/27 05:07:56;;;;;;;0.75;0.40;;;;;;;25.33;56.51;100241.97;5016119;28;20044;-64
2022/07/27 05:10:22;;;;;;;1.38;0.40;;;;;;;25.33;57.09;100241.97;5011752;28;20484;-64
2022/07/27 05:12:48;;;;;;;1.05;0.30;;;;;;;25.34;57.24;100254.25;5010157;28;20137;-64
2022/07/27 05:15:15;;;;;;;0.68;0.38;;;;;;;25.32;57.14;100259.03;5009752;28;20030;-65
2022/07/27 05:17:41;;;;;;;0.70;0.35;;;;;;;25.33;56.83;100260.66;5005575;28;20037;-64
2022/07/27 05:20:07;;;;;;;0.82;0.40;;;;;;;25.33;56.39;100265.19;5010308;28;20037;-64
2022/07/27 05:22:33;;;;;;;0.43;0.28;;;;;;;25.30;56.71;100271.00;4992967;28;20493;-64
2022/07/27 05:24:58;;;;;;;0.50;0.30;;;;;;;25.24;56.87;100274.66;5007765;28;20124;-65
2022/07/27 05:27:24;;;;;;;0.80;0.30;;;;;;;25.21;57.04;100289.28;5004183;28;20057;-65
2022/07/27 05:29:49;;;;;;;0.73;0.30;;;;;;;25.19;57.67;100293.22;5003463;28;20037;-65
2022/07/27 05:32:15;;;;;;;2.40;0.40;;;;;;;25.11;58.04;100311.25;5003846;28;20156;-65
2022/07/27 05:34:42;;;;;;;0.60;0.30;;;;;;;25.06;58.41;100315.69;5006716;28;20123;-65
2022/07/27 05:37:08;;;;;;;0.60;0.30;;;;;;;24.97;58.21;100319.84;5005372;28;20133;-64
2022/07/27 05:39:34;;;;;;;1.17;0.30;;;;;;;24.91;58.50;100328.78;5008508;28;20061;-65
2022/07/27 05:41:59;;;;;;;0.80;0.55;;;;;;;24.84;58.11;100336.91;5011511;28;20084;-65
2022/07/27 05:44:25;;;;;;;0.60;0.30;;;;;;;24.79;57.96;100337.63;4994106;28;20144;-65
2022/07/27 05:46:50;;;;;;;0.40;0.20;;;;;;;24.77;58.20;100329.06;5013444;28;20029;-65
2022/07/27 05:49:16;;;;;;;0.60;0.20;;;;;;;24.75;58.51;100349.00;5008038;28;20041;-64
2022/07/27 05:51:42;;;;;;;4.10;0.60;;;;;;;24.53;61.83;100348.91;5007249;28;20500;-67
2022/07/27 05:54:07;;;;;;;2.85;0.52;;;;;;;23.67;67.59;100361.25;5004232;28;20029;-66
2022/07/27 05:56:34;;;;;;;2.92;0.80;;;;;;;22.93;71.92;100362.69;5008918;28;20040;-66
2022/07/27 05:58:59;;;;;;;2.70;0.57;;;;;;;22.47;75.26;100366.81;5019416;28;20029;-66
2022/07/27 06:01:25;;;;;;;1.80;0.93;;;;;;;22.11;76.98;100370.31;5008687;28;20710;-67
2022/07/27 06:03:50;;;;;;;2.72;0.45;;;;;;;21.89;78.60;100373.59;5010030;28;20576;-66
2022/07/27 06:09:00;;;;;;;1.60;0.85;;;;;;;21.70;79.31;100372.81;5004145;28;20071;-67
2022/07/27 06:11:26;;;;;;;1.00;0.60;;;;;;;21.51;79.62;100362.16;5008241;28;20042;-67
2022/07/27 06:13:51;;;;;;;0.82;0.52;;;;;;;21.35;82.72;100364.53;5010296;28;20072;-66
2022/07/27 06:16:17;;;;;;;1.08;0.63;;;;;;;21.20;84.22;100359.56;5001778;28;20479;-67
2022/07/27 06:18:43;;;;;;;2.47;0.60;;;;;;;20.90;85.77;100347.97;5012180;28;20034;-64
2022/07/27 06:21:09;;;;;;;0.90;0.47;;;;;;;20.72;88.97;100338.94;5018374;28;20037;-65
2022/07/27 06:23:35;;;;;;;1.08;0.50;;;;;;;20.63;88.25;100332.28;4998804;28;20031;-63
2022/07/27 06:26:00;;;;;;;1.42;0.75;;;;;;;20.50;90.89;100324.41;5013617;28;20041;-64
2022/07/27 06:28:26;;;;;;;3.40;1.00;;;;;;;20.50;91.00;100321.75;5009599;28;20034;-63
2022/07/27 06:30:54;;;;;;;2.00;0.93;;;;;;;20.45;92.50;100317.09;5007926;28;20041;-63
2022/07/27 06:33:26;;;;;;;2.50;1.40;;;;;;;20.50;96.51;100303.22;5004744;28;20025;-64
2022/07/27 06:35:53;;;;;;;3.55;1.10;;;;;;;20.54;100.00;100291.19;5005707;28;20124;-64
2022/07/27 06:38:20;;;;;;;1.98;0.70;;;;;;;20.41;98.85;100264.81;4987904;28;20044;-63
2022/07/27 06:40:46;;;;;;;1.23;0.52;;;;;;;20.46;94.76;100231.41;4992121;28;20049;-63
2022/07/27 06:43:12;;;;;;;0.80;0.43;;;;;;;20.62;92.66;100211.53;4996209;28;20035;-63
2022/07/27 06:45:37;;;;;;;1.92;0.50;;;;;;;20.68;91.19;100197.44;5019764;28;20025;-62
2022/07/27 06:48:03;;;;;;;1.00;0.50;;;;;;;20.83;89.40;100212.97;5014557;28;20061;-63
2022/07/27 06:50:28;;;;;;;1.20;0.50;;;;;;;21.01;89.35;100212.19;5007441;28;20034;-63
2022/07/27 06:52:54;;;;;;;0.90;0.70;;;;;;;21.05;91.97;100214.19;5006421;28;20632;-65
2022/07/27 06:55:22;;;;;;;1.30;0.98;;;;;;;21.10;95.38;100201.09;5014882;28;20402;-63
2022/07/27 06:57:48;;;;;;;3.22;1.02;;;;;;;21.15;98.52;100203.91;5015092;28;20104;-64
2022/07/27 07:00:14;;;;;;;1.20;0.82;;;;;;;21.26;100.00;100207.72;4998302;28;20177;-63
2022/07/27 07:02:54;;;;;;;3.72;0.98;;;;;;;21.29;97.61;100207.25;5008283;28;20088;-63
2022/07/27 07:05:20;;;;;;;1.30;0.90;;;;;;;21.46;100.00;100194.22;5005072;28;20029;-65
2022/07/27 07:07:45;;;;;;;2.78;0.63;;;;;;;21.62;100.00;100183.00;5007541;28;20077;-64
2022/07/27 07:10:11;;;;;;;1.10;0.82;;;;;;;21.62;100.00;100188.31;5011097;28;20030;-67
2022/07/27 07:12:36;;;;;;;1.52;1.13;;;;;;;21.80;100.00;100182.16;5007644;28;20135;-65
2022/07/27 07:15:02;;;;;;;1.73;0.82;;;;;;;21.95;100.00;100171.94;5008356;28;20034;-63
2022/07/27 07:17:28;;;;;;;1.60;0.85;;;;;;;22.01;100.00;100179.03;5011719;28;20432;-65
2022/07/27 07:19:53;;;;;;;1.27;0.65;;;;;;;22.07;100.00;100179.97;5017904;28;20033;-65
2022/07/27 07:22:19;;;;;;;1.55;0.50;;;;;;;22.32;91.67;100163.88;5009461;28;20028;-62
2022/07/27 07:24:44;;;;;;;1.63;0.50;;;;;;;22.46;89.02;100159.97;5008592;28;20478;-64
2022/07/27 07:27:10;;;;;;;1.55;0.73;;;;;;;22.72;83.21;100150.72;5010943;28;20033;-63
2022/07/27 07:29:35;;;;;;;1.08;0.45;;;;;;;22.90;83.80;100147.19;5013134;28;20030;-65
2022/07/27 07:32:00;;;;;;;2.35;0.40;;;;;;;22.29;84.20;100162.47;5017195;28;20051;-64
2022/07/27 07:34:28;;;;;;;0.80;0.47;;;;;;;21.73;91.76;100160.25;5011891;28;20038;-64
2022/07/27 07:36:53;;;;;;;0.70;0.38;;;;;;;21.57;94.27;100150.25;5008979;28;20464;-64
2022/07/27 07:39:18;;;;;;;1.00;0.57;;;;;;;21.62;94.74;100153.03;5016644;28;20026;-64
2022/07/27 07:41:44;;;;;;;0.80;0.40;;;;;;;21.94;92.57;100164.22;5028535;28;20501;-67
2022/07/27 07:44:09;;;;;;;0.90;0.40;;;;;;;22.59;87.12;100175.69;5019094;28;20545;-62
2022/07/27 07:46:35;;;;;;;0.88;0.50;;;;;;;22.97;89.10;100179.75;5017379;28;20033;-64
2022/07/27 07:49:02;;;;;;;1.20;0.40;;;;;;;23.16;89.03;100189.97;5012503;28;20100;-67
2022/07/27 07:51:27;;;;;;;1.02;0.50;;;;;;;23.37;89.18;100193.88;5017709;28;20034;-66
2022/07/27 07:53:53;;;;;;;1.08;0.68;;;;;;;23.44;89.94;100191.91;5019409;28;22392;-63
2022/07/27 07:56:18;;;;;;;3.15;0.68;;;;;;;23.59;91.52;100187.97;4992105;28;20030;-69
2022/07/27 07:58:44;;;;;;;2.17;0.57;;;;;;;23.70;92.02;100181.78;5003659;28;20030;-66
2022/07/27 08:01:11;;;;;;;1.10;0.60;;;;;;;23.82;92.52;100180.69;5009575;28;20053;-67
2022/07/27 08:03:37;;;;;;;1.50;0.40;;;;;;;23.98;92.38;100180.97;5006585;28;20044;-65
2022/07/27 08:06:03;;;;;;;1.40;0.40;;;;;;;24.10;90.99;100182.50;5003874;28;20113;-67
2022/07/27 08:08:29;;;;;;;1.10;0.40;;;;;;;24.14;86.92;100180.97;5003558;28;20034;-65
2022/07/27 08:10:55;;;;;;;0.60;0.40;;;;;;;24.30;86.31;100184.75;5006161;28;20041;-65
2022/07/27 08:13:21;;;;;;;1.20;0.60;;;;;;;24.56;85.88;100182.50;4999302;28;20052;-67
2022/07/27 08:15:47;;;;;;;1.35;0.40;;;;;;;24.83;84.89;100182.63;4999518;28;20068;-69
2022/07/27 08:18:12;;;;;;;1.20;0.60;;;;;;;24.97;83.10;100183.94;4996839;28;20573;-66
2022/07/27 08:20:38;;;;;;;0.93;0.50;;;;;;;25.04;82.11;100189.88;5001680;28;20036;-69
2022/07/27 08:23:04;;;;;;;2.28;0.40;;;;;;;25.19;81.77;100182.06;4997998;28;20044;-68
2022/07/27 08:25:30;;;;;;;2.00;0.30;;;;;;;25.28;80.65;100174.44;4998169;28;20734;-66
2022/07/27 08:27:56;;;;;;;0.90;0.30;;;;;;;25.36;79.39;100172.16;4995773;28;20028;-62
2022/07/27 08:30:22;;;;;;;1.35;0.40;;;;;;;25.44;65.56;100174.41;5004435;28;20030;-65
2022/07/27 08:32:50;;;;;;;0.70;0.30;;;;;;;25.57;70.65;100169.72;4998555;28;20022;-65
2022/07/27 08:35:20;;;;;;;2.88;0.38;;;;;;;25.79;59.33;100175.84;4992625;28;20038;-65
2022/07/27 08:37:46;;;;;;;1.23;0.50;;;;;;;25.79;63.60;100175.84;4993616;28;20176;-66
2022/07/27 08:40:13;;;;;;;0.60;0.30;;;;;;;25.85;61.68;100188.19;4996076;28;20029;-67
2022/07/27 08:42:40;;;;;;;1.65;0.63;;;;;;;25.85;61.81;100179.38;4994403;28;20040;-67
2022/07/27 08:45:08;;;;;;;0.82;0.30;;;;;;;25.86;57.15;100189.81;4997907;28;20065;-65
2022/07/27 08:47:34;;;;;;;1.08;0.30;;;;;;;25.99;62.05;100173.41;4990971;28;20042;-66
2022/07/27 08:50:00;;;;;;;1.55;0.40;;;;;;;26.25;55.41;100190.44;4991764;28;20038;-67
2022/07/27 08:52:25;;;;;;;1.25;0.40;;;;;;;26.52;60.89;100174.38;4992303;28;20174;-67
2022/07/27 08:54:51;;;;;;;0.70;0.30;;;;;;;26.73;55.95;100184.16;4992985;28;20168;-66
2022/07/27 08:57:16;;;;;;;2.72;0.38;;;;;;;26.95;55.97;100184.00;4984317;28;20037;-67
2022/07/27 08:59:42;;;;;;;0.60;0.30;;;;;;;27.06;54.82;100168.84;4987695;28;20037;-66
2022/07/27 09:02:13;;;;;;;1.05;0.30;;;;;;;27.19;50.61;100168.38;4986754;28;20128;-67
2022/07/27 09:04:39;;;;;;;0.77;0.30;;;;;;;27.18;50.77;100172.13;4988371;28;20050;-65
2022/07/27 09:07:05;;;;;;;1.77;1.27;;;;;;;27.52;50.90;100171.69;5021870;28;20118;-66
2022/07/27 09:09:43;;;;;;;0.50;0.30;;;;;;;27.98;48.01;100181.44;5014730;28;20030;-64
2022/07/27 09:12:10;;;;;;;2.10;0.30;;;;;;;28.28;52.81;100186.06;5007091;28;20046;-66
2022/07/27 09:14:38;;;;;;;0.93;0.32;;;;;;;28.30;50.89;100175.88;5008160;28;20116;-65
2022/07/27 09:17:24;;;;;;;1.98;0.40;;;;;;;28.43;41.12;100182.56;5006025;28;20029;-67
2022/07/27 09:19:58;;;;;;;0.93;0.32;;;;;;;28.25;43.14;100189.28;5022439;28;20048;-68
2022/07/27 09:22:42;;;;;;;1.13;0.40;;;;;;;28.00;41.99;100192.69;5001597;28;20429;-66
2022/07/27 09:25:14;;;;;;;0.52;0.30;;;;;;;27.79;47.55;100188.41;5027457;28;20044;-66
2022/07/27 09:27:40;;;;;;;1.00;0.30;;;;;;;27.64;46.32;100191.03;5014224;28;20528;-67
2022/07/27 09:30:09;;;;;;;1.42;0.32;;;;;;;27.57;45.42;100187.75;5010975;28;20389;-67
2022/07/27 09:32:34;;;;;;;1.05;0.55;;;;;;;27.48;45.08;100200.84;5009418;28;20077;-68
2022/07/27 09:35:18;;;;;;;2.05;0.50;;;;;;;27.40;42.95;100199.50;5009573;28;20032;-66
2022/07/27 09:37:44;;;;;;;1.00;0.40;;;;;;;27.51;48.51;100196.84;5009995;28;20026;-65
2022/07/27 09:40:14;;;;;;;0.65;0.40;;;;;;;27.61;47.75;100199.59;5008671;28;20034;-66
2022/07/27 09:42:40;;;;;;;1.30;0.50;;;;;;;27.61;48.79;100211.09;5011685;28;20040;-67
2022/07/27 09:45:26;;;;;;;1.73;0.45;;;;;;;27.67;44.67;100202.00;5002800;28;20034;-65
2022/07/27 09:47:52;;;;;;;1.25;0.30;;;;;;;27.85;49.62;100192.69;5008795;28;20030;-68
2022/07/27 09:50:22;;;;;;;1.67;0.50;;;;;;;27.85;46.44;100190.03;5006216;28;20032;-67
2022/07/27 09:52:48;;;;;;;0.80;0.30;;;;;;;27.88;46.40;100192.16;5019038;28;20153;-67
2022/07/27 09:55:13;;;;;;;1.10;0.30;;;;;;;27.91;45.73;100194.28;5016435;28;20135;-68
2022/07/27 09:57:53;;;;;;;1.65;0.40;;;;;;;27.94;41.45;100191.06;5012089;28;20013;-67
2022/07/27 10:00:19;;;;;;;0.70;0.30;;;;;;;28.04;48.51;100184.94;5008797;28;20080;-66
2022/07/27 10:02:45;;;;;;;1.15;0.38;;;;;;;28.12;50.40;100188.97;5002745;28;20489;-66
2022/07/27 10:05:12;;;;;;;0.60;0.30;;;;;;;28.22;50.50;100191.69;5007329;28;20026;-65
2022/07/27 10:07:38;;;;;;;1.02;0.30;;;;;;;28.26;51.96;100182.84;5007085;28;20065;-67
2022/07/27 10:10:05;;;;;;;0.60;0.20;;;;;;;28.35;51.58;100188.47;5007994;28;20084;-65
2022/07/27 10:12:31;;;;;;;0.50;0.20;;;;;;;28.44;49.90;100178.00;4994243;28;20365;-65
2022/07/27 10:14:56;;;;;;;2.35;0.30;;;;;;;28.37;46.43;100183.63;5003748;28;20430;-66
2022/07/27 10:17:23;;;;;;;0.85;0.30;;;;;;;28.36;49.34;100190.84;5003173;28;20120;-68
2022/07/27 10:19:52;;;;;;;0.70;0.30;;;;;;;28.33;48.15;100193.31;5007011;28;20017;-65
2022/07/27 10:22:51;;;;;;;0.50;0.30;;;;;;;28.33;41.57;100187.94;5009255;28;21079;-68
2022/07/27 10:25:17;;;;;;;1.05;0.30;;;;;;;28.33;48.58;100185.25;5007082;28;20073;-68
2022/07/27 10:27:48;;;;;;;1.25;0.40;;;;;;;28.35;42.97;100196.50;5006297;28;20057;-67
2022/07/27 10:30:17;;;;;;;0.70;0.30;;;;;;;28.42;45.93;100186.31;5006564;28;20033;-68
2022/07/27 10:32:43;;;;;;;1.25;0.40;;;;;;;28.27;42.58;100189.00;5005002;28;20036;-66
2022/07/27 10:35:33;;;;;;;0.63;0.30;;;;;;;28.27;39.63;100189.00;5003780;28;20066;-66
2022/07/27 10:38:08;;;;;;;0.70;0.30;;;;;;;28.33;39.64;100188.75;5007044;28;20049;-66
2022/07/27 10:40:33;;;;;;;0.57;0.43;;;;;;;28.51;42.82;100187.38;5004469;28;20045;-67
2022/07/27 10:43:19;;;;;;;1.00;0.40;;;;;;;28.62;38.95;100188.97;4990174;28;20030;-66
2022/07/27 10:45:48;;;;;;;;;;;;;;;28.59;38.54;100186.84;5006985;28;20030;-67
2022/07/27 10:48:38;;;;;;;0.70;0.32;;;;;;;28.51;39.00;100190.06;5005749;28;19927;-66
2022/07/27 10:51:08;;;;;;;1.00;0.40;;;;;;;28.47;43.42;100189.00;5007453;28;20056;-68
2022/07/27 10:53:37;;;;;;;0.60;0.30;;;;;;;28.42;43.96;100186.31;5001828;28;20100;-66
2022/07/27 10:56:04;;;;;;;0.65;0.45;;;;;;;28.40;44.18;100193.81;5003302;28;20033;-65
2022/07/27 10:58:29;;;;;;;1.13;0.40;;;;;;;28.49;45.15;100197.56;5002266;28;20030;-66
2022/07/27 11:00:54;;;;;;;1.00;0.40;;;;;;;28.54;45.99;100191.41;5004636;28;20050;-68
2022/07/27 11:03:35;;;;;;;2.13;0.40;;;;;;;28.64;44.56;100189.50;5005763;28;20029;-69
2022/07/27 11:06:11;;;;;;;0.73;0.30;;;;;;;28.83;46.26;100192.44;5007239;28;20057;-69
2022/07/27 11:08:42;;;;;;;0.60;0.30;;;;;;;28.90;47.40;100181.44;5007403;28;20501;-68
2022/07/27 11:11:16;;;;;;;0.52;0.22;;;;;;;28.91;44.69;100183.84;5006840;28;20026;-69
2022/07/27 11:13:42;;;;;;;1.10;0.38;;;;;;;28.85;48.44;100184.13;5007886;28;20033;-67
2022/07/27 11:16:10;;;;;;;0.85;0.30;;;;;;;28.71;48.27;100179.31;5008273;28;20030;-67
2022/07/27 11:18:50;;;;;;;1.83;0.38;;;;;;;28.65;47.91;100185.75;5008050;28;20034;-68
2022/07/27 11:21:33;;;;;;;0.80;0.30;;;;;;;28.66;48.33;100192.72;5006704;28;20518;-66
2022/07/27 11:24:15;;;;;;;0.63;0.30;;;;;;;28.95;43.70;100184.91;5019894;28;20041;-68
2022/07/27 11:26:46;;;;;;;1.42;0.50;;;;;;;29.25;47.81;100184.00;5020761;28;20029;-66
2022/07/27 11:29:14;;;;;;;0.70;0.30;;;;;;;29.30;47.12;100170.56;5005998;28;20120;-68